createdAt,value
2022-09-10T00:00:55.458Z,16.49
2022-09-10T00:03:58.263Z,16.49
2022-09-10T00:07:00.826Z,16.45
2022-09-10T00:10:03.398Z,16.42
2022-09-10T00:13:07.171Z,16.41
2022-09-10T00:16:12.767Z,16.39
2022-09-10T00:19:16.152Z,16.34
2022-09-10T00:22:18.699Z,16.31
2022-09-10T00:25:21.170Z,16.30
2022-09-10T00:28:25.949Z,16.26
2022-09-10T00:31:30.149Z,16.23
2022-09-10T00:34:33.004Z,16.22
2022-09-10T00:37:35.410Z,16.16
2022-09-10T00:40:38.795Z,16.16
2022-09-10T00:44:02.516Z,16.11
2022-09-10T00:47:06.691Z,16.11
2022-09-10T00:50:30.647Z,16.10
2022-09-10T00:53:33.642Z,16.04
2022-09-10T00:56:36.973Z,16.03
2022-09-10T00:59:42.013Z,16.01
2022-09-10T01:02:44.594Z,16.00
2022-09-10T01:05:47.607Z,15.94
2022-09-10T01:08:50.093Z,15.97
2022-09-10T01:12:22.236Z,15.92
2022-09-10T01:15:30.727Z,15.90
2022-09-10T01:18:51.696Z,15.87
2022-09-10T01:22:20.368Z,15.82
2022-09-10T01:25:50.041Z,15.83
2022-09-10T01:29:34.656Z,15.77
2022-09-10T01:32:55.279Z,15.70
2022-09-10T01:36:05.354Z,15.69
2022-09-10T01:39:07.966Z,15.65
2022-09-10T01:42:10.523Z,15.66
2022-09-10T01:45:15.109Z,15.61
2022-09-10T01:48:20.562Z,15.57
2022-09-10T01:51:41.667Z,15.51
2022-09-10T01:55:10.754Z,15.53
2022-09-10T01:58:28.621Z,15.50
2022-09-10T02:01:43.617Z,15.53
2022-09-10T02:04:48.039Z,15.51
2022-09-10T02:07:53.766Z,15.44
2022-09-10T02:10:59.378Z,15.47
2022-09-10T02:14:02.018Z,15.43
2022-09-10T02:17:04.536Z,15.46
2022-09-10T02:20:11.640Z,15.51
2022-09-10T02:23:15.070Z,15.50
2022-09-10T02:26:17.557Z,15.51
2022-09-10T02:29:19.931Z,15.53
2022-09-10T02:32:22.456Z,15.51
2022-09-10T02:35:24.941Z,15.48
2022-09-10T02:38:29.285Z,15.50
2022-09-10T02:41:34.314Z,15.49
2022-09-10T02:44:37.621Z,15.49
2022-09-10T02:47:40.287Z,15.48
2022-09-10T02:50:45.558Z,15.49
2022-09-10T02:53:47.960Z,15.51
2022-09-10T02:56:50.527Z,15.51
2022-09-10T02:59:56.949Z,15.51
2022-09-10T03:03:02.958Z,15.52
2022-09-10T03:06:06.078Z,15.52
2022-09-10T03:09:08.536Z,15.52
2022-09-10T03:12:10.987Z,15.53
2022-09-10T03:15:13.641Z,15.52
2022-09-10T03:18:16.147Z,15.52
2022-09-10T03:21:21.481Z,15.52
2022-09-10T03:24:25.387Z,15.52
2022-09-10T03:27:27.808Z,15.53
2022-09-10T03:30:30.250Z,15.54
2022-09-10T03:33:32.963Z,15.52
2022-09-10T03:36:35.588Z,15.45
2022-09-10T03:39:38.061Z,15.45
2022-09-10T03:42:40.690Z,15.43
2022-09-10T03:45:44.601Z,15.43
2022-09-10T03:48:47.125Z,15.35
2022-09-10T03:51:49.548Z,15.30
2022-09-10T03:54:52.206Z,15.30
2022-09-10T03:57:54.634Z,15.29
2022-09-10T04:00:57.126Z,15.26
2022-09-10T04:03:59.570Z,15.24
2022-09-10T04:07:02.058Z,15.25
2022-09-10T04:10:04.910Z,15.25
2022-09-10T04:13:07.433Z,15.22
2022-09-10T04:16:10.059Z,15.23
2022-09-10T04:19:12.974Z,15.23
2022-09-10T04:22:15.390Z,15.22
2022-09-10T04:25:19.042Z,15.24
2022-09-10T04:28:21.415Z,15.23
2022-09-10T04:31:23.882Z,15.23
2022-09-10T04:34:26.358Z,15.24
2022-09-10T04:37:29.504Z,15.23
2022-09-10T04:40:32.149Z,15.22
2022-09-10T04:43:34.877Z,15.23
2022-09-10T04:46:37.333Z,15.22
2022-09-10T04:49:39.768Z,15.22
2022-09-10T04:52:43.425Z,15.24
2022-09-10T04:55:47.237Z,15.26
2022-09-10T04:58:49.634Z,15.26
2022-09-10T05:01:52.392Z,15.28
2022-09-10T05:04:54.940Z,15.31
2022-09-10T05:07:57.497Z,15.34
2022-09-10T05:11:03.009Z,15.37
2022-09-10T05:14:05.499Z,15.44
2022-09-10T05:17:08.151Z,15.46
2022-09-10T05:20:10.983Z,15.51
2022-09-10T05:23:13.525Z,15.56
2022-09-10T05:26:15.973Z,15.56
2022-09-10T05:29:18.510Z,15.54
2022-09-10T05:32:20.876Z,15.51
2022-09-10T05:35:23.417Z,15.53
2022-09-10T05:38:26.687Z,15.53
2022-09-10T05:41:31.248Z,15.49
2022-09-10T05:44:34.073Z,15.49
2022-09-10T05:47:37.726Z,15.50
2022-09-10T05:50:40.434Z,15.48
2022-09-10T05:53:42.915Z,15.47
2022-09-10T05:56:45.399Z,15.47
2022-09-10T05:59:47.757Z,15.43
2022-09-10T06:02:51.240Z,15.41
2022-09-10T06:05:55.915Z,15.40
2022-09-10T06:08:58.376Z,15.37
2022-09-10T06:12:01.040Z,15.46
2022-09-10T06:15:03.815Z,15.59
2022-09-10T06:18:06.743Z,15.73
2022-09-10T06:21:13.137Z,15.74
2022-09-10T06:24:15.604Z,15.86
2022-09-10T06:27:18.151Z,15.88
2022-09-10T06:30:20.938Z,15.90
2022-09-10T06:33:23.448Z,15.93
2022-09-10T06:36:28.683Z,16.03
2022-09-10T06:39:31.146Z,16.11
2022-09-10T06:42:33.588Z,16.14
2022-09-10T06:45:40.164Z,16.26
2022-09-10T06:48:47.571Z,16.41
2022-09-10T06:51:51.039Z,16.43
2022-09-10T06:54:53.548Z,16.56
2022-09-10T06:57:55.964Z,16.68
2022-09-10T07:00:58.579Z,16.84
2022-09-10T07:04:01.977Z,16.95
2022-09-10T07:07:04.462Z,17.11
2022-09-10T07:10:07.739Z,17.20
2022-09-10T07:13:10.905Z,17.36
2022-09-10T07:16:18.496Z,17.50
2022-09-10T07:19:21.114Z,17.60
2022-09-10T07:22:23.669Z,17.68
2022-09-10T07:25:26.776Z,17.77
2022-09-10T07:28:29.219Z,17.87
2022-09-10T07:31:38.405Z,18.03
2022-09-10T07:34:41.189Z,18.29
2022-09-10T07:37:45.307Z,18.28
2022-09-10T07:40:48.740Z,18.37
2022-09-10T07:43:53.973Z,18.56
2022-09-10T07:46:56.581Z,18.62
2022-09-10T07:50:00.370Z,18.66
2022-09-10T07:53:03.104Z,18.78
2022-09-10T07:56:07.505Z,19.05
2022-09-10T07:59:13.496Z,19.22
2022-09-10T08:02:16.022Z,19.55
2022-09-10T08:12:53.659Z,19.79
2022-09-10T08:16:05.395Z,20.07
2022-09-10T08:19:15.051Z,20.38
2022-09-10T08:22:18.413Z,20.31
2022-09-10T08:25:25.136Z,20.38
2022-09-10T08:28:33.560Z,20.53
2022-09-10T08:31:37.207Z,20.68
2022-09-10T08:34:40.772Z,20.68
2022-09-10T08:37:43.825Z,20.81
2022-09-10T08:40:53.778Z,21.00
2022-09-10T08:44:12.662Z,20.81
2022-09-10T08:47:21.395Z,21.05
2022-09-10T08:50:36.455Z,21.02
2022-09-10T08:54:07.520Z,20.94
2022-09-10T08:57:53.057Z,20.85
2022-09-10T09:01:03.051Z,21.66
2022-09-10T09:08:48.424Z,21.92
2022-09-10T09:12:19.083Z,22.01
2022-09-10T09:15:31.867Z,22.22
2022-09-10T09:19:03.142Z,22.50
2022-09-10T09:22:28.332Z,22.34
2022-09-10T09:25:50.495Z,22.24
2022-09-10T09:29:08.170Z,22.15
2022-09-10T09:32:19.529Z,22.72
2022-09-10T09:35:31.597Z,22.36
2022-09-10T09:38:37.609Z,22.83
2022-09-10T09:42:05.980Z,22.78
2022-09-10T09:45:34.964Z,22.96
2022-09-10T09:48:42.205Z,23.27
2022-09-10T09:51:57.102Z,23.26
2022-09-10T09:55:14.369Z,23.55
2022-09-10T09:58:21.224Z,23.58
2022-09-10T10:01:25.253Z,23.45
2022-09-10T10:04:33.949Z,23.63
2022-09-10T10:07:42.127Z,23.95
2022-09-10T10:10:51.832Z,23.78
2022-09-10T10:14:11.961Z,23.81
2022-09-10T10:17:32.996Z,24.01
2022-09-10T10:20:41.359Z,24.11
2022-09-10T10:23:44.536Z,24.29
2022-09-10T10:27:05.361Z,24.15
2022-09-10T10:30:17.018Z,24.39
2022-09-10T10:33:37.763Z,24.68
2022-09-10T10:37:13.604Z,24.71
2022-09-10T10:40:30.630Z,25.03
2022-09-10T10:43:58.551Z,25.02
2022-09-10T10:47:19.252Z,24.97
2022-09-10T10:50:31.082Z,24.51
2022-09-10T10:54:15.425Z,24.97
2022-09-10T10:57:43.380Z,25.10
2022-09-10T11:01:01.574Z,25.59
2022-09-10T11:04:13.133Z,25.44
2022-09-10T11:07:34.935Z,25.87
2022-09-10T11:10:41.301Z,26.18
2022-09-10T11:13:51.536Z,25.91
2022-09-10T11:17:01.226Z,26.28
2022-09-10T11:20:30.117Z,26.22
2022-09-10T11:23:47.885Z,26.22
2022-09-10T11:26:59.940Z,25.87
2022-09-10T11:30:19.390Z,25.99
2022-09-10T11:33:46.963Z,27.05
2022-09-10T11:36:54.931Z,28.43
2022-09-10T11:39:59.877Z,27.68
2022-09-10T11:43:14.666Z,27.34
2022-09-10T11:46:24.404Z,27.48
2022-09-10T11:49:35.544Z,27.61
2022-09-10T11:52:38.540Z,27.87
2022-09-10T11:55:49.392Z,27.02
2022-09-10T11:59:23.134Z,27.50
2022-09-10T12:02:38.185Z,27.38
2022-09-10T12:06:15.307Z,27.89
2022-09-10T12:09:28.242Z,26.65
2022-09-10T12:12:37.817Z,27.27
2022-09-10T12:15:40.417Z,26.56
2022-09-10T12:18:45.630Z,27.47
2022-09-10T12:21:51.210Z,27.28
2022-09-10T12:25:06.333Z,27.45
2022-09-10T12:28:43.698Z,27.39
2022-09-10T12:32:21.742Z,26.95
2022-09-10T12:35:33.068Z,28.20
2022-09-10T12:38:44.884Z,28.55
2022-09-10T12:41:47.911Z,27.12
2022-09-10T12:44:50.385Z,27.13
2022-09-10T12:47:52.924Z,26.39
2022-09-10T12:51:00.707Z,27.80
2022-09-10T12:54:24.650Z,28.07
2022-09-10T12:58:02.765Z,28.77
2022-09-10T13:01:20.719Z,28.82
2022-09-10T13:04:28.804Z,28.58
2022-09-10T13:07:41.836Z,27.39
2022-09-10T13:11:03.578Z,28.00
2022-09-10T13:14:06.332Z,28.45
2022-09-10T13:17:57.526Z,29.09
2022-09-10T13:21:00.450Z,28.82
2022-09-10T13:24:03.245Z,28.16
2022-09-10T13:27:17.868Z,27.92
2022-09-10T13:30:27.624Z,28.79
2022-09-10T13:33:33.523Z,28.57
2022-09-10T13:36:53.891Z,29.19
2022-09-10T13:40:02.678Z,29.21
2022-09-10T13:43:21.027Z,29.90
2022-09-10T13:46:44.545Z,27.94
2022-09-10T13:49:53.870Z,28.97
2022-09-10T13:53:00.128Z,29.26
2022-09-10T13:56:13.562Z,27.85
2022-09-10T13:59:24.122Z,29.31
2022-09-10T14:02:47.736Z,29.47
2022-09-10T14:05:53.403Z,29.45
2022-09-10T14:09:03.912Z,29.64
2022-09-10T14:12:08.253Z,29.91
2022-09-10T14:15:17.405Z,29.26
2022-09-10T14:18:20.845Z,29.18
2022-09-10T14:21:27.296Z,29.60
2022-09-10T14:24:56.747Z,30.03
2022-09-10T14:28:24.946Z,29.38
2022-09-10T14:31:38.920Z,29.30
2022-09-10T14:34:41.397Z,27.34
2022-09-10T14:37:43.919Z,27.69
2022-09-10T14:40:47.840Z,28.34
2022-09-10T14:43:55.427Z,25.65
2022-09-10T14:47:20.610Z,27.65
2022-09-10T14:50:28.020Z,26.81
2022-09-10T14:53:30.569Z,27.07
2022-09-10T14:56:39.406Z,27.14
2022-09-10T14:59:59.154Z,27.12
2022-09-10T15:03:02.612Z,26.75
2022-09-10T15:06:10.597Z,27.35
2022-09-10T15:09:15.151Z,27.73
2022-09-10T15:12:26.673Z,26.53
2022-09-10T15:15:30.969Z,27.27
2022-09-10T15:18:33.593Z,26.53
2022-09-10T15:21:36.139Z,26.73
2022-09-10T15:24:58.769Z,27.09
2022-09-10T15:38:24.075Z,25.74
2022-09-10T15:41:26.921Z,27.06
2022-09-10T15:44:29.545Z,25.67
2022-09-10T15:47:36.381Z,25.37
2022-09-10T15:50:38.882Z,25.21
2022-09-10T15:53:50.108Z,25.39
2022-09-10T15:56:56.319Z,24.18
2022-09-10T16:00:09.468Z,23.68
2022-09-10T16:03:12.110Z,23.83
2022-09-10T16:06:15.912Z,23.94
2022-09-10T16:09:18.768Z,24.12
2022-09-10T16:12:21.605Z,23.67
2022-09-10T16:15:25.766Z,23.34
2022-09-10T16:18:32.449Z,22.83
2022-09-10T16:21:40.661Z,22.65
2022-09-10T16:24:46.413Z,22.42
2022-09-10T16:27:48.989Z,22.11
2022-09-10T16:34:19.021Z,21.77
2022-09-10T16:37:32.359Z,21.56
2022-09-10T16:40:34.936Z,21.39
2022-09-10T16:43:37.737Z,21.11
2022-09-10T16:46:40.788Z,20.86
2022-09-10T16:49:43.814Z,20.70
2022-09-10T16:52:48.998Z,20.56
2022-09-10T16:55:51.517Z,20.36
2022-09-10T16:58:54.265Z,20.16
2022-09-10T17:02:00.596Z,20.04
2022-09-10T17:05:03.729Z,19.87
2022-09-10T17:08:06.488Z,19.72
2022-09-10T17:11:08.945Z,19.59
2022-09-10T17:14:11.888Z,19.46
2022-09-10T17:17:14.580Z,19.40
2022-09-10T17:20:23.422Z,19.27
2022-09-10T17:23:35.245Z,19.18
2022-09-10T17:26:47.394Z,19.07
2022-09-10T17:29:49.893Z,18.90
2022-09-10T17:32:52.530Z,18.94
2022-09-10T17:36:02.520Z,18.85
2022-09-10T17:39:05.053Z,18.79
2022-09-10T17:42:07.590Z,18.71
2022-09-10T17:45:10.721Z,18.68
2022-09-10T17:48:13.236Z,18.54
2022-09-10T17:51:20.687Z,18.42
2022-09-10T17:54:24.008Z,18.27
2022-09-10T17:57:35.738Z,18.17
2022-09-10T18:00:40.875Z,18.04
2022-09-10T18:03:43.342Z,17.94
2022-09-10T18:06:50.197Z,17.91
2022-09-10T18:09:57.703Z,17.72
2022-09-10T18:13:00.623Z,17.54
2022-09-10T18:16:09.206Z,17.35
2022-09-10T18:19:19.518Z,17.18
2022-09-10T18:22:41.110Z,16.99
2022-09-10T18:25:47.853Z,16.84
2022-09-10T18:29:11.709Z,16.71
2022-09-10T18:32:15.064Z,16.49
2022-09-10T18:35:18.285Z,16.45
2022-09-10T18:38:23.181Z,16.34
2022-09-10T18:41:31.318Z,16.25
2022-09-10T18:44:39.801Z,16.09
2022-09-10T18:47:45.361Z,15.83
2022-09-10T18:50:54.191Z,15.76
2022-09-10T18:54:01.459Z,15.66
2022-09-10T18:57:07.743Z,15.59
2022-09-10T19:00:11.227Z,15.59
2022-09-10T19:03:13.781Z,15.53
2022-09-10T19:06:29.077Z,15.50
2022-09-10T19:09:31.871Z,15.43
2022-09-10T19:12:34.628Z,15.34
2022-09-10T19:15:41.339Z,15.37
2022-09-10T19:18:44.144Z,15.46
2022-09-10T19:25:06.710Z,15.84
2022-09-10T19:28:20.245Z,16.11
2022-09-10T19:31:31.466Z,16.28
2022-09-10T19:34:34.067Z,16.34
2022-09-10T19:37:36.523Z,16.35
2022-09-10T19:40:40.532Z,16.46
2022-09-10T19:43:43.166Z,16.56
2022-09-10T19:46:46.893Z,16.59
2022-09-10T19:49:51.982Z,16.69
2022-09-10T19:53:00.192Z,16.70
2022-09-10T19:56:19.735Z,16.77
2022-09-10T19:59:23.108Z,16.71
2022-09-10T20:02:25.638Z,16.71
2022-09-10T20:05:29.030Z,16.64
2022-09-10T20:08:34.061Z,16.68
2022-09-10T20:11:36.775Z,16.70
2022-09-10T20:14:39.315Z,16.83
2022-09-10T20:17:41.747Z,16.78
2022-09-10T20:20:44.812Z,16.78
2022-09-10T20:23:52.248Z,16.70
2022-09-10T20:27:00.362Z,16.70
2022-09-10T20:30:03.789Z,16.61
2022-09-10T20:40:20.177Z,16.48
2022-09-10T20:43:29.280Z,16.45
2022-09-10T20:46:32.449Z,16.37
2022-09-10T20:53:30.714Z,16.34
2022-09-10T20:56:33.499Z,16.26
2022-09-10T20:59:40.930Z,16.30
2022-09-10T21:02:46.976Z,16.19
2022-09-10T21:05:58.475Z,16.35
2022-09-10T21:09:02.251Z,16.30
2022-09-10T21:12:15.193Z,16.22
2022-09-10T21:15:21.334Z,16.12
2022-09-10T21:18:30.412Z,16.02
2022-09-10T21:21:34.717Z,15.95
2022-09-10T21:24:40.139Z,15.82
2022-09-10T21:27:44.242Z,15.69
2022-09-10T21:30:46.719Z,15.65
2022-09-10T21:41:44.031Z,15.38
2022-09-10T21:44:46.471Z,15.28
2022-09-10T21:47:53.284Z,15.25
2022-09-10T21:51:12.799Z,15.18
2022-09-10T22:01:45.741Z,15.14
2022-09-10T22:05:03.132Z,15.08
2022-09-10T22:08:07.259Z,15.00
2022-09-10T22:11:36.017Z,14.85
2022-09-10T22:14:38.627Z,14.65
2022-09-10T22:17:43.282Z,14.67
2022-09-10T22:20:45.747Z,14.59
2022-09-10T22:23:54.023Z,14.58
2022-09-10T22:27:01.776Z,14.51
2022-09-10T22:30:07.698Z,14.46
2022-09-10T22:33:10.094Z,14.38
2022-09-10T22:36:26.524Z,14.35
2022-09-10T22:39:37.306Z,14.17
2022-09-10T22:42:39.893Z,14.03
2022-09-10T22:45:42.279Z,14.06
2022-09-10T22:48:45.681Z,14.04
2022-09-10T22:51:58.778Z,13.97
2022-09-10T22:55:09.900Z,13.73
2022-09-10T22:58:12.991Z,13.74
2022-09-10T23:01:16.504Z,13.70
2022-09-10T23:04:25.949Z,13.63
2022-09-10T23:07:33.609Z,13.58
2022-09-10T23:10:42.031Z,13.40
2022-09-10T23:13:45.888Z,13.43
2022-09-10T23:20:12.450Z,13.33
2022-09-10T23:23:14.899Z,13.21
2022-09-10T23:26:19.893Z,13.10
2022-09-10T23:29:27.455Z,13.00
2022-09-10T23:32:30.046Z,12.80
2022-09-10T23:35:42.908Z,12.86
2022-09-10T23:38:45.575Z,12.76
2022-09-10T23:42:13.437Z,12.72
2022-09-10T23:45:15.869Z,12.53
2022-09-10T23:56:12.449Z,12.36
2022-09-10T23:59:15.488Z,12.15
